sensor_id;sensor_type;location;lat;lon;timestamp;P1;durP1;ratioP1;P2;durP2;ratioP2
11344;SDS011;5727;42.600;23.028;2023-11-21T00:01:05;32.10;;;18.60;;
11344;SDS011;5727;42.600;23.028;2023-11-21T00:03:33;27.53;;;17.03;;
11344;SDS011;5727;42.600;23.028;2023-11-21T00:06:00;34.37;;;17.57;;
11344;SDS011;5727;42.600;23.028;2023-11-21T00:08:27;29.07;;;17.77;;
11344;SDS011;5727;42.600;23.028;2023-11-21T00:10:55;31.77;;;17.80;;
11344;SDS011;5727;42.600;23.028;2023-11-21T00:13:23;44.53;;;27.93;;
11344;SDS011;5727;42.600;23.028;2023-11-21T00:15:50;60.93;;;36.03;;
11344;SDS011;5727;42.600;23.028;2023-11-21T00:18:17;71.27;;;40.67;;
11344;SDS011;5727;42.600;23.028;2023-11-21T00:20:44;68.30;;;41.33;;
11344;SDS011;5727;42.600;23.028;2023-11-21T00:23:11;67.83;;;41.43;;
11344;SDS011;5727;42.600;23.028;2023-11-21T00:25:38;69.70;;;39.13;;
11344;SDS011;5727;42.600;23.028;2023-11-21T00:28:05;75.77;;;40.73;;
11344;SDS011;5727;42.600;23.028;2023-11-21T00:30:33;52.70;;;32.87;;
11344;SDS011;5727;42.600;23.028;2023-11-21T00:33:00;55.17;;;34.73;;
11344;SDS011;5727;42.600;23.028;2023-11-21T00:35:27;58.30;;;36.97;;
11344;SDS011;5727;42.600;23.028;2023-11-21T00:37:53;66.63;;;37.03;;
11344;SDS011;5727;42.600;23.028;2023-11-21T00:40:21;58.17;;;35.80;;
11344;SDS011;5727;42.600;23.028;2023-11-21T00:42:48;56.13;;;35.90;;
11344;SDS011;5727;42.600;23.028;2023-11-21T00:45:15;54.53;;;36.43;;
11344;SDS011;5727;42.600;23.028;2023-11-21T00:47:43;61.40;;;35.37;;
11344;SDS011;5727;42.600;23.028;2023-11-21T00:50:10;61.40;;;38.17;;
11344;SDS011;5727;42.600;23.028;2023-11-21T00:52:37;61.63;;;35.37;;
11344;SDS011;5727;42.600;23.028;2023-11-21T00:55:04;62.03;;;34.30;;
11344;SDS011;5727;42.600;23.028;2023-11-21T00:57:32;61.90;;;37.00;;
11344;SDS011;5727;42.600;23.028;2023-11-21T00:59:59;62.07;;;37.63;;
11344;SDS011;5727;42.600;23.028;2023-11-21T01:02:27;71.90;;;39.47;;
11344;SDS011;5727;42.600;23.028;2023-11-21T01:04:55;62.87;;;37.70;;
11344;SDS011;5727;42.600;23.028;2023-11-21T01:07:22;65.70;;;39.37;;
11344;SDS011;5727;42.600;23.028;2023-11-21T01:09:49;60.57;;;37.87;;
11344;SDS011;5727;42.600;23.028;2023-11-21T01:12:16;64.60;;;37.97;;
11344;SDS011;5727;42.600;23.028;2023-11-21T01:14:44;57.37;;;36.77;;
11344;SDS011;5727;42.600;23.028;2023-11-21T01:17:11;65.53;;;38.90;;
11344;SDS011;5727;42.600;23.028;2023-11-21T01:19:37;61.67;;;35.70;;
11344;SDS011;5727;42.600;23.028;2023-11-21T01:22:06;53.37;;;35.07;;
11344;SDS011;5727;42.600;23.028;2023-11-21T01:24:33;54.10;;;35.03;;
11344;SDS011;5727;42.600;23.028;2023-11-21T01:27:01;64.93;;;35.03;;
11344;SDS011;5727;42.600;23.028;2023-11-21T01:29:29;56.77;;;33.87;;
11344;SDS011;5727;42.600;23.028;2023-11-21T01:31:56;57.13;;;33.47;;
11344;SDS011;5727;42.600;23.028;2023-11-21T01:34:23;53.27;;;30.70;;
11344;SDS011;5727;42.600;23.028;2023-11-21T01:36:50;53.67;;;34.07;;
11344;SDS011;5727;42.600;23.028;2023-11-21T01:39:18;51.00;;;30.73;;
11344;SDS011;5727;42.600;23.028;2023-11-21T01:41:48;49.60;;;28.60;;
11344;SDS011;5727;42.600;23.028;2023-11-21T01:44:17;46.30;;;28.60;;
11344;SDS011;5727;42.600;23.028;2023-11-21T01:46:44;42.73;;;28.63;;
11344;SDS011;5727;42.600;23.028;2023-11-21T01:49:11;46.67;;;28.37;;
11344;SDS011;5727;42.600;23.028;2023-11-21T01:51:40;41.30;;;25.30;;
11344;SDS011;5727;42.600;23.028;2023-11-21T01:54:08;36.67;;;22.80;;
11344;SDS011;5727;42.600;23.028;2023-11-21T01:56:38;41.43;;;25.30;;
11344;SDS011;5727;42.600;23.028;2023-11-21T01:59:05;38.50;;;26.13;;
11344;SDS011;5727;42.600;23.028;2023-11-21T02:01:32;50.50;;;30.07;;
11344;SDS011;5727;42.600;23.028;2023-11-21T02:03:59;54.47;;;32.37;;
11344;SDS011;5727;42.600;23.028;2023-11-21T02:06:26;52.87;;;31.20;;
11344;SDS011;5727;42.600;23.028;2023-11-21T02:08:56;52.17;;;29.23;;
11344;SDS011;5727;42.600;23.028;2023-11-21T02:11:24;37.70;;;24.97;;
11344;SDS011;5727;42.600;23.028;2023-11-21T02:13:53;30.10;;;21.73;;
11344;SDS011;5727;42.600;23.028;2023-11-21T02:16:20;31.23;;;20.40;;
11344;SDS011;5727;42.600;23.028;2023-11-21T02:18:47;29.47;;;18.90;;
11344;SDS011;5727;42.600;23.028;2023-11-21T02:21:14;29.93;;;18.67;;
11344;SDS011;5727;42.600;23.028;2023-11-21T02:23:43;32.23;;;20.07;;
11344;SDS011;5727;42.600;23.028;2023-11-21T02:26:11;33.60;;;20.13;;
11344;SDS011;5727;42.600;23.028;2023-11-21T02:28:39;28.90;;;18.73;;
11344;SDS011;5727;42.600;23.028;2023-11-21T02:31:06;27.57;;;19.00;;
11344;SDS011;5727;42.600;23.028;2023-11-21T02:33:33;36.50;;;20.50;;
11344;SDS011;5727;42.600;23.028;2023-11-21T02:36:00;37.57;;;22.07;;
11344;SDS011;5727;42.600;23.028;2023-11-21T02:38:29;38.63;;;23.73;;
11344;SDS011;5727;42.600;23.028;2023-11-21T02:40:57;37.53;;;20.63;;
11344;SDS011;5727;42.600;23.028;2023-11-21T02:43:24;29.10;;;18.03;;
11344;SDS011;5727;42.600;23.028;2023-11-21T02:45:51;29.30;;;19.03;;
11344;SDS011;5727;42.600;23.028;2023-11-21T02:48:18;28.17;;;17.37;;
11344;SDS011;5727;42.600;23.028;2023-11-21T02:50:45;24.03;;;17.03;;
11344;SDS011;5727;42.600;23.028;2023-11-21T02:53:11;24.40;;;16.27;;
11344;SDS011;5727;42.600;23.028;2023-11-21T02:55:38;19.57;;;14.23;;
11344;SDS011;5727;42.600;23.028;2023-11-21T02:58:07;21.90;;;14.40;;
11344;SDS011;5727;42.600;23.028;2023-11-21T03:00:34;22.93;;;14.30;;
11344;SDS011;5727;42.600;23.028;2023-11-21T03:03:00;21.90;;;13.80;;
11344;SDS011;5727;42.600;23.028;2023-11-21T03:05:27;18.80;;;13.13;;
11344;SDS011;5727;42.600;23.028;2023-11-21T03:07:54;21.90;;;14.00;;
11344;SDS011;5727;42.600;23.028;2023-11-21T03:10:21;24.03;;;14.30;;
11344;SDS011;5727;42.600;23.028;2023-11-21T03:12:48;22.13;;;12.93;;
11344;SDS011;5727;42.600;23.028;2023-11-21T03:15:17;17.40;;;13.97;;
11344;SDS011;5727;42.600;23.028;2023-11-21T03:17:43;22.83;;;14.10;;
11344;SDS011;5727;42.600;23.028;2023-11-21T03:20:10;23.27;;;16.53;;
11344;SDS011;5727;42.600;23.028;2023-11-21T03:22:39;25.93;;;15.43;;
11344;SDS011;5727;42.600;23.028;2023-11-21T03:25:06;26.37;;;15.23;;
11344;SDS011;5727;42.600;23.028;2023-11-21T03:27:35;26.63;;;14.90;;
11344;SDS011;5727;42.600;23.028;2023-11-21T03:30:03;19.33;;;14.40;;
11344;SDS011;5727;42.600;23.028;2023-11-21T03:32:33;25.87;;;16.03;;
11344;SDS011;5727;42.600;23.028;2023-11-21T03:35:00;22.50;;;15.47;;
11344;SDS011;5727;42.600;23.028;2023-11-21T03:37:28;23.47;;;16.07;;
11344;SDS011;5727;42.600;23.028;2023-11-21T03:39:55;22.13;;;15.90;;
11344;SDS011;5727;42.600;23.028;2023-11-21T03:42:22;22.67;;;15.83;;
11344;SDS011;5727;42.600;23.028;2023-11-21T03:44:50;27.50;;;15.80;;
11344;SDS011;5727;42.600;23.028;2023-11-21T03:47:17;24.67;;;16.87;;
11344;SDS011;5727;42.600;23.028;2023-11-21T03:49:46;25.37;;;19.57;;
11344;SDS011;5727;42.600;23.028;2023-11-21T03:52:13;30.90;;;20.03;;
11344;SDS011;5727;42.600;23.028;2023-11-21T03:54:40;24.63;;;19.93;;
11344;SDS011;5727;42.600;23.028;2023-11-21T03:57:07;36.80;;;23.57;;
11344;SDS011;5727;42.600;23.028;2023-11-21T03:59:34;45.27;;;27.50;;
11344;SDS011;5727;42.600;23.028;2023-11-21T04:02:01;52.77;;;32.70;;
11344;SDS011;5727;42.600;23.028;2023-11-21T04:04:28;55.33;;;33.17;;
11344;SDS011;5727;42.600;23.028;2023-11-21T04:06:56;59.97;;;33.93;;
11344;SDS011;5727;42.600;23.028;2023-11-21T04:09:23;60.00;;;33.93;;
11344;SDS011;5727;42.600;23.028;2023-11-21T04:11:50;51.80;;;33.67;;
11344;SDS011;5727;42.600;23.028;2023-11-21T04:14:17;52.67;;;33.60;;
11344;SDS011;5727;42.600;23.028;2023-11-21T04:16:44;55.87;;;32.77;;
11344;SDS011;5727;42.600;23.028;2023-11-21T04:19:11;52.60;;;32.33;;
11344;SDS011;5727;42.600;23.028;2023-11-21T04:21:39;55.27;;;32.13;;
11344;SDS011;5727;42.600;23.028;2023-11-21T04:24:08;55.40;;;30.70;;
11344;SDS011;5727;42.600;23.028;2023-11-21T04:26:35;52.90;;;28.77;;
11344;SDS011;5727;42.600;23.028;2023-11-21T04:29:02;45.17;;;27.97;;
11344;SDS011;5727;42.600;23.028;2023-11-21T04:31:29;49.37;;;27.67;;
11344;SDS011;5727;42.600;23.028;2023-11-21T04:33:57;45.90;;;29.27;;
11344;SDS011;5727;42.600;23.028;2023-11-21T04:36:23;50.77;;;28.87;;
11344;SDS011;5727;42.600;23.028;2023-11-21T04:38:50;46.20;;;27.17;;
11344;SDS011;5727;42.600;23.028;2023-11-21T04:41:18;47.57;;;29.97;;
11344;SDS011;5727;42.600;23.028;2023-11-21T04:43:45;45.63;;;27.13;;
11344;SDS011;5727;42.600;23.028;2023-11-21T04:46:12;43.80;;;28.63;;
11344;SDS011;5727;42.600;23.028;2023-11-21T04:48:39;42.73;;;29.30;;
11344;SDS011;5727;42.600;23.028;2023-11-21T04:51:06;46.80;;;30.13;;
11344;SDS011;5727;42.600;23.028;2023-11-21T04:53:33;34.30;;;23.83;;
11344;SDS011;5727;42.600;23.028;2023-11-21T04:56:00;47.60;;;26.50;;
11344;SDS011;5727;42.600;23.028;2023-11-21T04:58:28;41.63;;;27.50;;
11344;SDS011;5727;42.600;23.028;2023-11-21T05:00:56;43.33;;;29.77;;
11344;SDS011;5727;42.600;23.028;2023-11-21T05:03:23;46.57;;;29.30;;
11344;SDS011;5727;42.600;23.028;2023-11-21T05:05:51;50.57;;;31.57;;
11344;SDS011;5727;42.600;23.028;2023-11-21T05:08:18;55.33;;;32.87;;
11344;SDS011;5727;42.600;23.028;2023-11-21T05:10:45;52.00;;;32.70;;
11344;SDS011;5727;42.600;23.028;2023-11-21T05:13:13;51.10;;;33.20;;
11344;SDS011;5727;42.600;23.028;2023-11-21T05:15:43;49.57;;;31.60;;
11344;SDS011;5727;42.600;23.028;2023-11-21T05:18:10;48.97;;;32.50;;
11344;SDS011;5727;42.600;23.028;2023-11-21T05:20:38;54.43;;;30.67;;
11344;SDS011;5727;42.600;23.028;2023-11-21T05:23:06;55.10;;;31.57;;
11344;SDS011;5727;42.600;23.028;2023-11-21T05:25:33;58.13;;;32.57;;
11344;SDS011;5727;42.600;23.028;2023-11-21T05:28:00;61.53;;;34.73;;
11344;SDS011;5727;42.600;23.028;2023-11-21T05:30:27;59.13;;;35.00;;
11344;SDS011;5727;42.600;23.028;2023-11-21T05:32:56;67.50;;;34.40;;
11344;SDS011;5727;42.600;23.028;2023-11-21T05:35:23;61.63;;;34.10;;
11344;SDS011;5727;42.600;23.028;2023-11-21T05:37:49;60.40;;;32.33;;
11344;SDS011;5727;42.600;23.028;2023-11-21T05:40:15;50.47;;;31.73;;
11344;SDS011;5727;42.600;23.028;2023-11-21T05:42:43;53.37;;;32.83;;
11344;SDS011;5727;42.600;23.028;2023-11-21T05:45:10;56.90;;;32.13;;
11344;SDS011;5727;42.600;23.028;2023-11-21T05:47:38;50.30;;;31.70;;
11344;SDS011;5727;42.600;23.028;2023-11-21T05:50:08;54.50;;;31.67;;
11344;SDS011;5727;42.600;23.028;2023-11-21T05:52:39;57.40;;;33.23;;
11344;SDS011;5727;42.600;23.028;2023-11-21T05:55:07;56.73;;;33.77;;
11344;SDS011;5727;42.600;23.028;2023-11-21T05:57:34;62.27;;;34.57;;
11344;SDS011;5727;42.600;23.028;2023-11-21T06:00:03;56.57;;;35.53;;
11344;SDS011;5727;42.600;23.028;2023-11-21T06:02:36;60.00;;;36.90;;
11344;SDS011;5727;42.600;23.028;2023-11-21T06:05:04;61.87;;;35.30;;
11344;SDS011;5727;42.600;23.028;2023-11-21T06:07:33;51.23;;;31.13;;
11344;SDS011;5727;42.600;23.028;2023-11-21T06:10:00;53.63;;;29.00;;
11344;SDS011;5727;42.600;23.028;2023-11-21T06:12:31;60.47;;;30.73;;
11344;SDS011;5727;42.600;23.028;2023-11-21T06:15:00;47.90;;;30.37;;
11344;SDS011;5727;42.600;23.028;2023-11-21T06:17:29;48.40;;;31.60;;
11344;SDS011;5727;42.600;23.028;2023-11-21T06:19:56;54.53;;;31.80;;
11344;SDS011;5727;42.600;23.028;2023-11-21T06:22:23;55.50;;;35.97;;
11344;SDS011;5727;42.600;23.028;2023-11-21T06:24:51;66.17;;;34.67;;
11344;SDS011;5727;42.600;23.028;2023-11-21T06:27:18;59.53;;;34.83;;
11344;SDS011;5727;42.600;23.028;2023-11-21T06:29:44;58.43;;;34.10;;
11344;SDS011;5727;42.600;23.028;2023-11-21T06:32:12;51.27;;;34.17;;
11344;SDS011;5727;42.600;23.028;2023-11-21T06:34:41;59.13;;;33.57;;
11344;SDS011;5727;42.600;23.028;2023-11-21T06:37:08;52.53;;;32.03;;
11344;SDS011;5727;42.600;23.028;2023-11-21T06:39:35;51.83;;;32.93;;
11344;SDS011;5727;42.600;23.028;2023-11-21T06:42:03;51.57;;;31.33;;
11344;SDS011;5727;42.600;23.028;2023-11-21T06:44:30;52.93;;;31.93;;
11344;SDS011;5727;42.600;23.028;2023-11-21T06:46:58;46.03;;;31.70;;
11344;SDS011;5727;42.600;23.028;2023-11-21T06:49:25;59.27;;;35.37;;
11344;SDS011;5727;42.600;23.028;2023-11-21T06:51:52;61.83;;;36.90;;
11344;SDS011;5727;42.600;23.028;2023-11-21T06:54:20;64.40;;;38.10;;
11344;SDS011;5727;42.600;23.028;2023-11-21T06:56:47;51.90;;;30.50;;
11344;SDS011;5727;42.600;23.028;2023-11-21T06:59:16;45.37;;;30.57;;
11344;SDS011;5727;42.600;23.028;2023-11-21T07:01:43;52.43;;;31.53;;
11344;SDS011;5727;42.600;23.028;2023-11-21T07:04:09;52.73;;;30.10;;
11344;SDS011;5727;42.600;23.028;2023-11-21T07:06:36;49.70;;;29.23;;
11344;SDS011;5727;42.600;23.028;2023-11-21T07:09:03;52.73;;;30.53;;
11344;SDS011;5727;42.600;23.028;2023-11-21T07:11:30;44.23;;;29.00;;
11344;SDS011;5727;42.600;23.028;2023-11-21T07:13:58;50.27;;;29.67;;
11344;SDS011;5727;42.600;23.028;2023-11-21T07:16:26;49.27;;;31.80;;
11344;SDS011;5727;42.600;23.028;2023-11-21T07:18:53;51.90;;;33.20;;
11344;SDS011;5727;42.600;23.028;2023-11-21T07:21:20;53.50;;;33.40;;
11344;SDS011;5727;42.600;23.028;2023-11-21T07:23:47;56.77;;;30.10;;
11344;SDS011;5727;42.600;23.028;2023-11-21T07:26:14;53.23;;;30.53;;
11344;SDS011;5727;42.600;23.028;2023-11-21T07:28:41;51.20;;;29.63;;
11344;SDS011;5727;42.600;23.028;2023-11-21T07:31:08;52.70;;;30.40;;
11344;SDS011;5727;42.600;23.028;2023-11-21T07:33:36;44.17;;;29.03;;
11344;SDS011;5727;42.600;23.028;2023-11-21T07:36:04;42.73;;;25.67;;
11344;SDS011;5727;42.600;23.028;2023-11-21T07:38:32;38.00;;;24.40;;
11344;SDS011;5727;42.600;23.028;2023-11-21T07:40:59;31.60;;;21.27;;
11344;SDS011;5727;42.600;23.028;2023-11-21T07:43:26;38.37;;;23.20;;
11344;SDS011;5727;42.600;23.028;2023-11-21T07:46:00;46.83;;;24.07;;
11344;SDS011;5727;42.600;23.028;2023-11-21T07:48:28;40.57;;;24.47;;
11344;SDS011;5727;42.600;23.028;2023-11-21T07:50:56;38.80;;;22.67;;
11344;SDS011;5727;42.600;23.028;2023-11-21T07:53:24;42.47;;;22.30;;
11344;SDS011;5727;42.600;23.028;2023-11-21T07:55:54;29.87;;;19.47;;
11344;SDS011;5727;42.600;23.028;2023-11-21T07:58:21;29.70;;;19.57;;
11344;SDS011;5727;42.600;23.028;2023-11-21T08:00:48;28.70;;;18.70;;
11344;SDS011;5727;42.600;23.028;2023-11-21T08:03:16;40.30;;;26.17;;
11344;SDS011;5727;42.600;23.028;2023-11-21T08:05:43;26.87;;;17.53;;
11344;SDS011;5727;42.600;23.028;2023-11-21T08:08:11;23.23;;;15.53;;
11344;SDS011;5727;42.600;23.028;2023-11-21T08:10:38;30.13;;;18.20;;
11344;SDS011;5727;42.600;23.028;2023-11-21T08:13:06;28.57;;;18.20;;
11344;SDS011;5727;42.600;23.028;2023-11-21T08:15:34;32.93;;;17.50;;
11344;SDS011;5727;42.600;23.028;2023-11-21T08:18:02;30.23;;;18.13;;
11344;SDS011;5727;42.600;23.028;2023-11-21T08:20:29;29.20;;;18.87;;
11344;SDS011;5727;42.600;23.028;2023-11-21T08:22:56;31.00;;;20.33;;
11344;SDS011;5727;42.600;23.028;2023-11-21T08:25:25;30.97;;;19.33;;
11344;SDS011;5727;42.600;23.028;2023-11-21T08:27:52;23.93;;;18.10;;
11344;SDS011;5727;42.600;23.028;2023-11-21T08:30:19;31.80;;;18.53;;
11344;SDS011;5727;42.600;23.028;2023-11-21T08:32:48;33.00;;;20.53;;
11344;SDS011;5727;42.600;23.028;2023-11-21T08:35:16;38.37;;;20.50;;
11344;SDS011;5727;42.600;23.028;2023-11-21T08:37:43;28.13;;;18.90;;
11344;SDS011;5727;42.600;23.028;2023-11-21T08:40:11;36.63;;;20.23;;
11344;SDS011;5727;42.600;23.028;2023-11-21T08:42:43;27.93;;;19.43;;
11344;SDS011;5727;42.600;23.028;2023-11-21T08:45:11;32.37;;;21.07;;
11344;SDS011;5727;42.600;23.028;2023-11-21T08:47:38;32.63;;;19.90;;
11344;SDS011;5727;42.600;23.028;2023-11-21T08:50:05;35.37;;;22.47;;
11344;SDS011;5727;42.600;23.028;2023-11-21T08:52:33;52.17;;;27.33;;
11344;SDS011;5727;42.600;23.028;2023-11-21T08:55:00;49.40;;;30.13;;
11344;SDS011;5727;42.600;23.028;2023-11-21T08:57:32;54.40;;;30.90;;
11344;SDS011;5727;42.600;23.028;2023-11-21T09:00:01;54.37;;;30.53;;
11344;SDS011;5727;42.600;23.028;2023-11-21T09:02:30;39.00;;;23.23;;
11344;SDS011;5727;42.600;23.028;2023-11-21T09:04:59;37.97;;;21.47;;
11344;SDS011;5727;42.600;23.028;2023-11-21T09:07:28;35.13;;;20.80;;
11344;SDS011;5727;42.600;23.028;2023-11-21T09:09:55;36.27;;;20.20;;
11344;SDS011;5727;42.600;23.028;2023-11-21T09:12:22;40.38;;;23.58;;
11344;SDS011;5727;42.600;23.028;2023-11-21T09:14:50;30.87;;;19.60;;
11344;SDS011;5727;42.600;23.028;2023-11-21T09:17:18;28.83;;;18.57;;
11344;SDS011;5727;42.600;23.028;2023-11-21T09:19:45;32.27;;;20.47;;
11344;SDS011;5727;42.600;23.028;2023-11-21T09:22:16;34.90;;;21.27;;
11344;SDS011;5727;42.600;23.028;2023-11-21T09:24:44;38.20;;;22.00;;
11344;SDS011;5727;42.600;23.028;2023-11-21T09:27:11;36.77;;;19.70;;
11344;SDS011;5727;42.600;23.028;2023-11-21T09:29:38;38.90;;;19.70;;
11344;SDS011;5727;42.600;23.028;2023-11-21T09:32:05;28.90;;;17.43;;
11344;SDS011;5727;42.600;23.028;2023-11-21T09:34:34;23.77;;;17.17;;
11344;SDS011;5727;42.600;23.028;2023-11-21T09:37:03;34.60;;;16.93;;
11344;SDS011;5727;42.600;23.028;2023-11-21T09:39:31;27.07;;;18.13;;
11344;SDS011;5727;42.600;23.028;2023-11-21T09:42:01;33.60;;;19.40;;
11344;SDS011;5727;42.600;23.028;2023-11-21T09:44:36;41.43;;;20.93;;
11344;SDS011;5727;42.600;23.028;2023-11-21T09:47:14;33.87;;;21.53;;
11344;SDS011;5727;42.600;23.028;2023-11-21T09:49:44;27.43;;;16.60;;
11344;SDS011;5727;42.600;23.028;2023-11-21T09:52:16;26.63;;;16.73;;
11344;SDS011;5727;42.600;23.028;2023-11-21T09:54:50;23.07;;;14.70;;
11344;SDS011;5727;42.600;23.028;2023-11-21T09:57:19;22.27;;;13.80;;
11344;SDS011;5727;42.600;23.028;2023-11-21T09:59:48;21.30;;;14.97;;
11344;SDS011;5727;42.600;23.028;2023-11-21T10:02:20;23.83;;;14.80;;
11344;SDS011;5727;42.600;23.028;2023-11-21T10:04:52;20.57;;;14.70;;
11344;SDS011;5727;42.600;23.028;2023-11-21T10:07:20;24.03;;;15.07;;
11344;SDS011;5727;42.600;23.028;2023-11-21T10:09:47;24.27;;;14.20;;
11344;SDS011;5727;42.600;23.028;2023-11-21T10:12:14;21.53;;;14.53;;
11344;SDS011;5727;42.600;23.028;2023-11-21T10:14:42;22.87;;;13.17;;
11344;SDS011;5727;42.600;23.028;2023-11-21T10:17:14;20.37;;;13.63;;
11344;SDS011;5727;42.600;23.028;2023-11-21T10:19:43;15.57;;;12.23;;
11344;SDS011;5727;42.600;23.028;2023-11-21T10:22:14;19.67;;;13.40;;
11344;SDS011;5727;42.600;23.028;2023-11-21T10:24:42;22.43;;;12.80;;
11344;SDS011;5727;42.600;23.028;2023-11-21T10:27:09;17.90;;;13.03;;
11344;SDS011;5727;42.600;23.028;2023-11-21T10:29:36;23.50;;;13.70;;
11344;SDS011;5727;42.600;23.028;2023-11-21T10:32:03;18.40;;;12.37;;
11344;SDS011;5727;42.600;23.028;2023-11-21T10:34:31;22.33;;;14.17;;
11344;SDS011;5727;42.600;23.028;2023-11-21T10:36:58;21.47;;;13.13;;
11344;SDS011;5727;42.600;23.028;2023-11-21T10:39:26;18.07;;;13.03;;
11344;SDS011;5727;42.600;23.028;2023-11-21T10:41:56;21.17;;;12.77;;
11344;SDS011;5727;42.600;23.028;2023-11-21T10:44:23;22.90;;;13.53;;
11344;SDS011;5727;42.600;23.028;2023-11-21T10:46:51;20.03;;;12.80;;
11344;SDS011;5727;42.600;23.028;2023-11-21T10:49:21;20.17;;;13.33;;
11344;SDS011;5727;42.600;23.028;2023-11-21T10:51:49;14.30;;;11.27;;
11344;SDS011;5727;42.600;23.028;2023-11-21T10:54:21;18.00;;;11.93;;
11344;SDS011;5727;42.600;23.028;2023-11-21T10:56:50;15.63;;;10.93;;
11344;SDS011;5727;42.600;23.028;2023-11-21T10:59:22;13.97;;;7.30;;
11344;SDS011;5727;42.600;23.028;2023-11-21T11:01:51;10.10;;;7.77;;
11344;SDS011;5727;42.600;23.028;2023-11-21T11:04:18;13.77;;;9.40;;
11344;SDS011;5727;42.600;23.028;2023-11-21T11:06:49;11.93;;;7.87;;
11344;SDS011;5727;42.600;23.028;2023-11-21T11:09:21;12.70;;;7.23;;
11344;SDS011;5727;42.600;23.028;2023-11-21T11:11:50;10.50;;;7.07;;
11344;SDS011;5727;42.600;23.028;2023-11-21T11:14:18;15.07;;;6.57;;
11344;SDS011;5727;42.600;23.028;2023-11-21T11:16:45;12.60;;;7.73;;
11344;SDS011;5727;42.600;23.028;2023-11-21T11:19:14;13.73;;;6.87;;
11344;SDS011;5727;42.600;23.028;2023-11-21T11:21:47;12.23;;;5.73;;
11344;SDS011;5727;42.600;23.028;2023-11-21T11:24:28;12.93;;;5.17;;
11344;SDS011;5727;42.600;23.028;2023-11-21T11:27:19;6.10;;;4.83;;
11344;SDS011;5727;42.600;23.028;2023-11-21T11:29:56;6.00;;;4.20;;
11344;SDS011;5727;42.600;23.028;2023-11-21T11:32:38;7.97;;;4.50;;
11344;SDS011;5727;42.600;23.028;2023-11-21T11:35:16;8.97;;;5.43;;
11344;SDS011;5727;42.600;23.028;2023-11-21T11:37:48;10.90;;;5.40;;
11344;SDS011;5727;42.600;23.028;2023-11-21T11:40:15;6.87;;;4.93;;
11344;SDS011;5727;42.600;23.028;2023-11-21T11:42:57;7.27;;;4.40;;
11344;SDS011;5727;42.600;23.028;2023-11-21T11:45:24;11.07;;;5.63;;
11344;SDS011;5727;42.600;23.028;2023-11-21T11:48:00;8.20;;;5.23;;
11344;SDS011;5727;42.600;23.028;2023-11-21T11:50:28;7.93;;;4.70;;
11344;SDS011;5727;42.600;23.028;2023-11-21T11:53:12;7.47;;;5.10;;
11344;SDS011;5727;42.600;23.028;2023-11-21T11:55:40;9.50;;;5.20;;
11344;SDS011;5727;42.600;23.028;2023-11-21T11:58:08;7.07;;;5.30;;
11344;SDS011;5727;42.600;23.028;2023-11-21T12:00:36;5.83;;;3.90;;
11344;SDS011;5727;42.600;23.028;2023-11-21T12:03:05;10.80;;;4.87;;
11344;SDS011;5727;42.600;23.028;2023-11-21T12:05:35;6.13;;;4.10;;
11344;SDS011;5727;42.600;23.028;2023-11-21T12:08:04;11.30;;;4.27;;
11344;SDS011;5727;42.600;23.028;2023-11-21T12:10:33;8.50;;;4.67;;
11344;SDS011;5727;42.600;23.028;2023-11-21T12:13:01;15.57;;;8.77;;
11344;SDS011;5727;42.600;23.028;2023-11-21T12:15:34;54.57;;;30.77;;
11344;SDS011;5727;42.600;23.028;2023-11-21T12:18:00;26.43;;;15.60;;
11344;SDS011;5727;42.600;23.028;2023-11-21T12:20:27;23.63;;;13.03;;
11344;SDS011;5727;42.600;23.028;2023-11-21T12:22:55;15.63;;;8.90;;
11344;SDS011;5727;42.600;23.028;2023-11-21T12:25:25;20.07;;;9.23;;
11344;SDS011;5727;42.600;23.028;2023-11-21T12:27:54;16.87;;;10.10;;
11344;SDS011;5727;42.600;23.028;2023-11-21T12:30:23;15.13;;;9.50;;
11344;SDS011;5727;42.600;23.028;2023-11-21T12:32:55;20.73;;;11.23;;
11344;SDS011;5727;42.600;23.028;2023-11-21T12:35:24;24.23;;;14.60;;
11344;SDS011;5727;42.600;23.028;2023-11-21T12:37:52;25.43;;;14.30;;
11344;SDS011;5727;42.600;23.028;2023-11-21T12:40:22;16.77;;;10.53;;
11344;SDS011;5727;42.600;23.028;2023-11-21T12:42:51;12.57;;;8.40;;
11344;SDS011;5727;42.600;23.028;2023-11-21T12:45:19;14.43;;;8.83;;
11344;SDS011;5727;42.600;23.028;2023-11-21T12:47:48;15.20;;;9.30;;
11344;SDS011;5727;42.600;23.028;2023-11-21T12:50:19;13.20;;;7.97;;
11344;SDS011;5727;42.600;23.028;2023-11-21T12:52:49;14.57;;;7.60;;
11344;SDS011;5727;42.600;23.028;2023-11-21T12:55:19;9.37;;;6.90;;
11344;SDS011;5727;42.600;23.028;2023-11-21T12:57:48;10.43;;;7.80;;
11344;SDS011;5727;42.600;23.028;2023-11-21T13:00:17;12.03;;;8.90;;
11344;SDS011;5727;42.600;23.028;2023-11-21T13:02:53;17.97;;;10.57;;
11344;SDS011;5727;42.600;23.028;2023-11-21T13:05:28;13.47;;;10.07;;
11344;SDS011;5727;42.600;23.028;2023-11-21T13:07:56;17.60;;;11.37;;
11344;SDS011;5727;42.600;23.028;2023-11-21T13:10:25;22.93;;;15.80;;
11344;SDS011;5727;42.600;23.028;2023-11-21T13:12:56;21.73;;;13.47;;
11344;SDS011;5727;42.600;23.028;2023-11-21T13:15:25;17.37;;;11.03;;
11344;SDS011;5727;42.600;23.028;2023-11-21T13:17:53;18.27;;;9.43;;
11344;SDS011;5727;42.600;23.028;2023-11-21T13:20:21;13.10;;;9.03;;
11344;SDS011;5727;42.600;23.028;2023-11-21T13:22:51;11.80;;;7.70;;
11344;SDS011;5727;42.600;23.028;2023-11-21T13:25:22;10.47;;;6.53;;
11344;SDS011;5727;42.600;23.028;2023-11-21T13:27:52;11.77;;;7.47;;
11344;SDS011;5727;42.600;23.028;2023-11-21T13:30:19;11.93;;;6.07;;
11344;SDS011;5727;42.600;23.028;2023-11-21T13:32:51;11.70;;;6.27;;
11344;SDS011;5727;42.600;23.028;2023-11-21T13:35:18;12.67;;;7.17;;
11344;SDS011;5727;42.600;23.028;2023-11-21T13:38:02;12.50;;;6.30;;
11344;SDS011;5727;42.600;23.028;2023-11-21T13:40:31;11.83;;;6.47;;
11344;SDS011;5727;42.600;23.028;2023-11-21T13:43:05;18.07;;;10.13;;
11344;SDS011;5727;42.600;23.028;2023-11-21T13:45:35;14.83;;;7.73;;
11344;SDS011;5727;42.600;23.028;2023-11-21T13:48:01;9.17;;;7.53;;
11344;SDS011;5727;42.600;23.028;2023-11-21T13:50:32;16.40;;;7.60;;
11344;SDS011;5727;42.600;23.028;2023-11-21T13:53:00;17.77;;;7.70;;
11344;SDS011;5727;42.600;23.028;2023-11-21T13:55:35;18.97;;;12.20;;
11344;SDS011;5727;42.600;23.028;2023-11-21T13:58:04;14.63;;;9.10;;
11344;SDS011;5727;42.600;23.028;2023-11-21T14:00:35;16.83;;;10.20;;
11344;SDS011;5727;42.600;23.028;2023-11-21T14:03:11;18.20;;;12.03;;
11344;SDS011;5727;42.600;23.028;2023-11-21T14:05:47;20.37;;;12.57;;
11344;SDS011;5727;42.600;23.028;2023-11-21T14:08:18;28.23;;;19.43;;
11344;SDS011;5727;42.600;23.028;2023-11-21T14:10:46;30.90;;;17.97;;
11344;SDS011;5727;42.600;23.028;2023-11-21T14:13:20;25.63;;;17.00;;
11344;SDS011;5727;42.600;23.028;2023-11-21T14:15:48;25.37;;;14.70;;
11344;SDS011;5727;42.600;23.028;2023-11-21T14:18:19;26.63;;;13.93;;
11344;SDS011;5727;42.600;23.028;2023-11-21T14:20:53;23.97;;;13.33;;
11344;SDS011;5727;42.600;23.028;2023-11-21T14:23:21;17.33;;;12.90;;
11344;SDS011;5727;42.600;23.028;2023-11-21T14:25:48;14.63;;;10.77;;
11344;SDS011;5727;42.600;23.028;2023-11-21T14:28:17;18.53;;;11.27;;
11344;SDS011;5727;42.600;23.028;2023-11-21T14:30:44;11.83;;;8.63;;